createdAt,value
2022-10-18T00:00:33.791Z,100.00
2022-10-18T00:03:01.536Z,100.00
2022-10-18T00:05:29.021Z,100.00
2022-10-18T00:07:56.498Z,100.00
2022-10-18T00:10:24.973Z,100.00
2022-10-18T00:12:53.041Z,100.00
2022-10-18T00:15:23.171Z,100.00
2022-10-18T00:18:10.900Z,100.00
2022-10-18T00:21:15.093Z,100.00
2022-10-18T00:24:15.849Z,100.00
2022-10-18T00:26:57.096Z,100.00
2022-10-18T00:29:45.847Z,100.00
2022-10-18T00:32:29.926Z,100.00
2022-10-18T00:35:00.458Z,100.00
2022-10-18T00:37:30.746Z,100.00
2022-10-18T00:40:01.643Z,100.00
2022-10-18T00:42:37.383Z,100.00
2022-10-18T00:45:04.745Z,100.00
2022-10-18T00:47:35.838Z,100.00
2022-10-18T00:50:24.799Z,100.00
2022-10-18T00:53:11.397Z,100.00
2022-10-18T00:55:59.230Z,100.00
2022-10-18T00:58:41.711Z,100.00
2022-10-18T01:01:14.253Z,100.00
2022-10-18T01:03:42.266Z,100.00
2022-10-18T01:06:10.793Z,100.00
2022-10-18T01:08:43.852Z,100.00
2022-10-18T01:11:22.400Z,100.00
2022-10-18T01:14:10.433Z,100.00
2022-10-18T01:17:10.001Z,100.00
2022-10-18T01:19:42.963Z,100.00
2022-10-18T01:22:18.617Z,100.00
2022-10-18T01:25:08.899Z,100.00
2022-10-18T01:28:26.944Z,100.00
2022-10-18T01:31:45.686Z,100.00
2022-10-18T01:34:28.915Z,100.00
2022-10-18T01:36:57.298Z,100.00
2022-10-18T01:39:27.533Z,100.00
2022-10-18T01:41:57.128Z,100.00
2022-10-18T01:44:26.027Z,100.00
2022-10-18T01:46:54.895Z,100.00
2022-10-18T01:49:21.863Z,100.00
2022-10-18T01:51:48.778Z,100.00
2022-10-18T01:54:37.749Z,100.00
2022-10-18T01:57:32.551Z,100.00
2022-10-18T01:59:59.400Z,100.00
2022-10-18T02:02:42.633Z,100.00
2022-10-18T02:05:30.125Z,100.00
2022-10-18T02:08:23.157Z,100.00
2022-10-18T02:11:12.831Z,100.00
2022-10-18T02:14:09.043Z,100.00
2022-10-18T02:16:38.958Z,100.00
2022-10-18T02:19:12.395Z,100.00
2022-10-18T02:21:41.104Z,100.00
2022-10-18T02:24:28.943Z,100.00
2022-10-18T02:27:10.146Z,100.00
2022-10-18T02:29:57.766Z,100.00
2022-10-18T02:33:01.882Z,100.00
2022-10-18T02:35:46.549Z,100.00
2022-10-18T02:38:14.626Z,100.00
2022-10-18T02:40:41.699Z,100.00
2022-10-18T02:43:08.904Z,100.00
2022-10-18T02:45:35.903Z,100.00
2022-10-18T02:48:03.029Z,100.00
2022-10-18T02:50:32.428Z,100.00
2022-10-18T02:52:59.438Z,100.00
2022-10-18T02:55:46.894Z,100.00
2022-10-18T02:58:31.561Z,100.00
2022-10-18T03:01:18.828Z,100.00
2022-10-18T03:04:19.783Z,100.00
2022-10-18T03:07:20.690Z,100.00
2022-10-18T03:09:55.547Z,100.00
2022-10-18T03:12:22.474Z,100.00
2022-10-18T03:14:49.313Z,100.00
2022-10-18T03:17:16.219Z,100.00
2022-10-18T03:19:42.933Z,100.00
2022-10-18T03:22:09.831Z,100.00
2022-10-18T03:24:56.725Z,100.00
2022-10-18T03:27:37.225Z,100.00
2022-10-18T03:30:24.708Z,100.00
2022-10-18T03:33:18.886Z,100.00
2022-10-18T03:35:59.299Z,100.00
2022-10-18T03:38:26.063Z,100.00
2022-10-18T03:40:52.888Z,100.00
2022-10-18T03:43:19.677Z,100.00
2022-10-18T03:45:46.474Z,100.00
2022-10-18T03:48:13.263Z,100.00
2022-10-18T03:50:40.056Z,100.00
2022-10-18T03:53:06.809Z,100.00
2022-10-18T03:55:53.715Z,100.00
2022-10-18T03:58:54.760Z,100.00
2022-10-18T04:01:35.248Z,100.00
2022-10-18T04:04:02.113Z,100.00
2022-10-18T04:06:28.851Z,100.00
2022-10-18T04:08:55.716Z,100.00
2022-10-18T04:11:23.446Z,100.00
2022-10-18T04:13:50.499Z,100.00
2022-10-18T04:16:17.374Z,100.00
2022-10-18T04:18:44.194Z,100.00
2022-10-18T04:21:11.104Z,100.00
2022-10-18T04:24:00.806Z,100.00
2022-10-18T04:26:51.236Z,100.00
2022-10-18T04:29:38.740Z,100.00
2022-10-18T04:32:19.281Z,100.00
2022-10-18T04:34:46.030Z,100.00
2022-10-18T04:37:12.764Z,100.00
2022-10-18T04:39:39.546Z,100.00
2022-10-18T04:42:06.296Z,100.00
2022-10-18T04:44:33.320Z,100.00
2022-10-18T04:47:00.193Z,100.00
2022-10-18T04:49:46.776Z,100.00
2022-10-18T04:52:47.749Z,100.00
2022-10-18T04:55:48.761Z,100.00
2022-10-18T04:58:40.404Z,100.00
2022-10-18T05:01:27.859Z,100.00
2022-10-18T05:04:12.756Z,100.00
2022-10-18T05:07:03.785Z,100.00
2022-10-18T05:09:44.164Z,100.00
2022-10-18T05:12:30.930Z,100.00
2022-10-18T05:15:31.917Z,100.00
2022-10-18T05:18:12.302Z,100.00
2022-10-18T05:20:39.073Z,100.00
2022-10-18T05:23:05.833Z,100.00
2022-10-18T05:25:52.812Z,100.00
2022-10-18T05:28:53.980Z,100.00
2022-10-18T05:31:34.259Z,100.00
2022-10-18T05:34:02.049Z,100.00
2022-10-18T05:36:28.919Z,100.00
2022-10-18T05:38:56.271Z,100.00
2022-10-18T05:41:43.789Z,100.00
2022-10-18T05:44:24.331Z,100.00
2022-10-18T05:47:11.820Z,100.00
2022-10-18T05:49:52.249Z,100.00
2022-10-18T05:52:19.200Z,100.00
2022-10-18T05:55:06.799Z,100.00
2022-10-18T05:58:07.819Z,100.00
2022-10-18T06:00:48.309Z,100.00
2022-10-18T06:03:15.311Z,100.00
2022-10-18T06:05:42.171Z,100.00
2022-10-18T06:08:10.316Z,100.00
2022-10-18T06:10:57.821Z,100.00
2022-10-18T06:13:45.763Z,100.00
2022-10-18T06:16:13.055Z,100.00
2022-10-18T06:18:39.978Z,100.00
2022-10-18T06:21:07.616Z,100.00
2022-10-18T06:23:34.631Z,100.00
2022-10-18T06:26:11.661Z,100.00
2022-10-18T06:28:58.952Z,100.00
2022-10-18T06:31:59.880Z,100.00
2022-10-18T06:34:40.374Z,100.00
2022-10-18T06:37:18.648Z,100.00
2022-10-18T06:39:46.233Z,100.00
2022-10-18T06:42:13.013Z,100.00
2022-10-18T06:44:59.815Z,100.00
2022-10-18T06:47:40.487Z,100.00
2022-10-18T06:50:07.654Z,100.00
2022-10-18T06:52:34.789Z,100.00
2022-10-18T06:55:21.840Z,100.00
2022-10-18T06:58:22.908Z,100.00
2022-10-18T07:01:21.162Z,100.00
2022-10-18T07:04:21.872Z,100.00
2022-10-18T07:07:02.329Z,100.00
2022-10-18T07:09:29.231Z,100.00
2022-10-18T07:12:15.868Z,100.00
2022-10-18T07:15:17.954Z,100.00
2022-10-18T07:17:58.381Z,100.00
2022-10-18T07:20:25.102Z,100.00
2022-10-18T07:22:55.899Z,100.00
2022-10-18T07:25:24.817Z,100.00
2022-10-18T07:27:53.996Z,100.00
2022-10-18T07:30:20.958Z,100.00
2022-10-18T07:32:47.776Z,100.00
2022-10-18T07:35:14.647Z,100.00
2022-10-18T07:38:01.886Z,100.00
2022-10-18T07:41:02.844Z,100.00
2022-10-18T07:43:45.760Z,100.00
2022-10-18T07:46:13.046Z,100.00
2022-10-18T07:48:59.854Z,100.00
2022-10-18T07:51:40.411Z,100.00
2022-10-18T07:54:28.886Z,100.00
2022-10-18T07:57:30.046Z,100.00
2022-10-18T08:00:30.859Z,100.00
2022-10-18T08:03:20.052Z,100.00
2022-10-18T08:05:54.001Z,100.00
2022-10-18T08:08:22.353Z,100.00
2022-10-18T08:10:49.513Z,100.00
2022-10-18T08:13:16.393Z,100.00
2022-10-18T08:15:43.228Z,100.00
2022-10-18T08:18:10.203Z,100.00
2022-10-18T08:20:37.756Z,100.00
2022-10-18T08:23:05.029Z,100.00
2022-10-18T08:25:32.114Z,100.00
2022-10-18T08:27:59.014Z,100.00
2022-10-18T08:30:25.884Z,100.00
2022-10-18T08:32:52.678Z,100.00
2022-10-18T08:35:19.479Z,100.00
2022-10-18T08:37:46.340Z,100.00
2022-10-18T08:40:14.123Z,100.00
2022-10-18T08:42:50.459Z,100.00
2022-10-18T08:45:42.257Z,100.00
2022-10-18T08:48:42.391Z,100.00
2022-10-18T08:51:17.421Z,100.00
2022-10-18T08:54:16.911Z,100.00
2022-10-18T08:57:24.954Z,100.00
2022-10-18T09:00:32.936Z,100.00
2022-10-18T09:03:53.941Z,100.00
2022-10-18T09:06:37.393Z,100.00
2022-10-18T09:09:07.286Z,100.00
2022-10-18T09:11:43.167Z,100.00
2022-10-18T09:14:28.325Z,100.00
2022-10-18T09:16:55.189Z,100.00
2022-10-18T09:19:28.026Z,100.00
2022-10-18T09:21:55.770Z,100.00
2022-10-18T09:24:26.839Z,100.00
2022-10-18T09:26:57.581Z,100.00
2022-10-18T09:29:24.345Z,100.00
2022-10-18T09:31:54.071Z,100.00
2022-10-18T09:34:39.656Z,100.00
2022-10-18T09:37:27.979Z,100.00
2022-10-18T09:40:19.073Z,100.00
2022-10-18T09:43:11.786Z,100.00
2022-10-18T09:45:57.993Z,100.00
2022-10-18T09:49:01.929Z,100.00
2022-10-18T09:52:03.943Z,100.00
2022-10-18T09:54:53.979Z,100.00
2022-10-18T09:57:58.053Z,100.00
2022-10-18T10:01:00.972Z,100.00
2022-10-18T10:03:49.566Z,100.00
2022-10-18T10:06:17.673Z,100.00
2022-10-18T10:08:47.813Z,100.00
2022-10-18T10:11:32.435Z,100.00
2022-10-18T10:14:18.057Z,100.00
2022-10-18T10:16:44.912Z,100.00
2022-10-18T10:19:38.030Z,100.00
2022-10-18T10:22:06.536Z,100.00
2022-10-18T10:24:35.479Z,100.00
2022-10-18T10:27:04.387Z,100.00
2022-10-18T10:30:05.832Z,100.00
2022-10-18T10:33:00.949Z,100.00
2022-10-18T10:36:10.965Z,100.00
2022-10-18T10:39:06.903Z,100.00
2022-10-18T10:41:34.191Z,97.71
2022-10-18T10:44:30.060Z,100.00
2022-10-18T10:47:25.582Z,100.00
2022-10-18T10:49:56.196Z,100.00
2022-10-18T10:52:43.095Z,100.00
2022-10-18T10:55:48.014Z,100.00
2022-10-18T10:58:30.869Z,100.00
2022-10-18T11:01:30.992Z,100.00
2022-10-18T11:04:31.073Z,100.00
2022-10-18T11:07:37.140Z,100.00
2022-10-18T11:10:07.769Z,100.00
2022-10-18T11:12:38.458Z,100.00
2022-10-18T11:15:17.466Z,100.00
2022-10-18T11:18:03.016Z,100.00
2022-10-18T11:20:45.521Z,100.00
2022-10-18T11:23:15.492Z,100.00
2022-10-18T11:25:56.026Z,99.60
2022-10-18T11:28:41.549Z,99.54
2022-10-18T11:31:36.020Z,99.40
2022-10-18T11:34:50.169Z,97.60
2022-10-18T11:37:43.100Z,98.17
2022-10-18T11:40:19.170Z,100.00
2022-10-18T11:43:04.754Z,93.94
2022-10-18T11:45:34.578Z,99.32
2022-10-18T11:48:04.331Z,95.55
2022-10-18T11:50:38.703Z,95.11
2022-10-18T11:53:33.045Z,93.55
2022-10-18T11:56:38.022Z,97.54
2022-10-18T11:59:28.317Z,95.98
2022-10-18T12:02:15.165Z,95.03
2022-10-18T12:05:24.538Z,95.33
2022-10-18T12:07:51.836Z,94.22
2022-10-18T12:10:31.534Z,95.37
2022-10-18T12:13:09.669Z,95.79
2022-10-18T12:15:39.695Z,96.25
2022-10-18T12:18:11.236Z,94.82
2022-10-18T12:20:41.846Z,93.69
2022-10-18T12:23:14.654Z,92.09
2022-10-18T12:25:43.213Z,93.21
2022-10-18T12:28:28.832Z,93.11
2022-10-18T12:31:22.058Z,93.26
2022-10-18T12:34:21.263Z,92.81
2022-10-18T12:36:48.181Z,91.86
2022-10-18T12:39:43.571Z,90.80
2022-10-18T12:42:55.058Z,90.57
2022-10-18T12:45:46.697Z,91.65
2022-10-18T12:48:56.324Z,91.63
2022-10-18T12:52:07.151Z,91.05
2022-10-18T12:55:16.973Z,87.43
2022-10-18T12:58:10.909Z,89.58
2022-10-18T13:00:37.714Z,91.53
2022-10-18T13:03:13.377Z,87.58
2022-10-18T13:06:06.655Z,88.20
2022-10-18T13:08:48.296Z,85.31
2022-10-18T13:11:27.506Z,87.44
2022-10-18T13:16:37.839Z,88.03
2022-10-18T13:19:23.614Z,88.12
2022-10-18T13:21:59.840Z,86.51
2022-10-18T13:24:32.902Z,85.47
2022-10-18T13:27:31.078Z,90.82
2022-10-18T13:30:14.092Z,86.59
2022-10-18T13:33:16.821Z,87.42
2022-10-18T13:35:46.971Z,85.18
2022-10-18T13:38:36.073Z,85.88
2022-10-18T13:41:17.005Z,87.38
2022-10-18T13:43:53.264Z,85.74
2022-10-18T13:46:21.204Z,84.61
2022-10-18T13:48:47.995Z,83.13
2022-10-18T13:51:35.220Z,86.25
2022-10-18T13:54:36.067Z,83.85
2022-10-18T13:57:56.260Z,84.47
2022-10-18T14:00:49.067Z,85.88
2022-10-18T14:03:57.006Z,83.76
2022-10-18T14:07:02.352Z,85.12
2022-10-18T14:09:56.116Z,83.74
2022-10-18T14:12:27.878Z,83.74
2022-10-18T14:14:56.636Z,83.95
2022-10-18T14:17:35.724Z,83.51
2022-10-18T14:20:23.012Z,82.36
2022-10-18T14:22:56.509Z,83.32
2022-10-18T14:25:28.129Z,83.36
2022-10-18T14:28:21.658Z,85.50
2022-10-18T14:31:29.129Z,83.86
2022-10-18T14:34:15.361Z,83.23
2022-10-18T14:36:46.274Z,82.09
2022-10-18T14:39:39.121Z,83.13
2022-10-18T14:42:31.026Z,82.77
2022-10-18T14:44:57.911Z,83.03
2022-10-18T14:47:26.066Z,84.54
2022-10-18T14:50:13.150Z,83.27
2022-10-18T14:53:18.232Z,83.36
2022-10-18T14:56:20.193Z,83.05
2022-10-18T14:59:02.591Z,84.53
2022-10-18T15:01:30.714Z,85.78
2022-10-18T15:03:58.899Z,82.69
2022-10-18T15:06:46.222Z,85.31
2022-10-18T15:09:48.225Z,84.99
2022-10-18T15:12:33.905Z,85.25
2022-10-18T15:15:15.877Z,85.77
2022-10-18T15:17:43.516Z,85.63
2022-10-18T15:20:28.498Z,86.79
2022-10-18T15:23:38.153Z,86.43
2022-10-18T15:26:40.171Z,87.91
2022-10-18T15:29:21.185Z,87.69
2022-10-18T15:31:49.574Z,88.69
2022-10-18T15:34:22.685Z,88.83
2022-10-18T15:36:51.039Z,89.88
2022-10-18T15:39:39.176Z,90.45
2022-10-18T15:42:46.681Z,90.81
2022-10-18T15:45:25.659Z,91.25
2022-10-18T15:48:10.877Z,91.46
2022-10-18T15:50:39.959Z,91.89
2022-10-18T15:53:28.331Z,93.21
2022-10-18T15:56:11.450Z,95.12
2022-10-18T15:59:06.298Z,96.01
2022-10-18T16:01:46.935Z,100.00
2022-10-18T16:04:37.174Z,100.00
2022-10-18T16:07:22.371Z,100.00
2022-10-18T16:10:09.398Z,100.00
2022-10-18T16:12:49.913Z,100.00
2022-10-18T16:15:17.172Z,100.00
2022-10-18T16:17:44.282Z,100.00
2022-10-18T16:20:25.048Z,100.00
2022-10-18T16:23:12.386Z,100.00
2022-10-18T16:26:13.202Z,100.00
2022-10-18T16:29:14.267Z,100.00
2022-10-18T16:31:58.207Z,100.00
2022-10-18T16:34:27.204Z,100.00
2022-10-18T16:36:54.213Z,100.00
2022-10-18T16:39:21.810Z,100.00
2022-10-18T16:41:48.688Z,100.00
2022-10-18T16:44:16.941Z,100.00
2022-10-18T16:46:43.789Z,100.00
2022-10-18T16:49:35.260Z,100.00
2022-10-18T16:52:36.364Z,100.00
2022-10-18T16:55:37.337Z,100.00
2022-10-18T16:58:36.183Z,100.00
2022-10-18T17:01:05.384Z,100.00
2022-10-18T17:03:55.218Z,100.00
2022-10-18T17:06:56.289Z,100.00
2022-10-18T17:09:57.306Z,100.00
2022-10-18T17:12:37.706Z,100.00
2022-10-18T17:15:04.843Z,100.00
2022-10-18T17:17:52.421Z,100.00
2022-10-18T17:20:33.406Z,100.00
2022-10-18T17:23:00.631Z,100.00
2022-10-18T17:25:58.928Z,100.00
2022-10-18T17:28:52.968Z,100.00
2022-10-18T17:31:40.311Z,100.00
2022-10-18T17:34:21.510Z,100.00
2022-10-18T17:36:48.518Z,100.00
2022-10-18T17:39:15.721Z,100.00
2022-10-18T17:41:42.661Z,100.00
2022-10-18T17:44:10.066Z,100.00
2022-10-18T17:46:57.647Z,100.00
2022-10-18T17:49:58.334Z,100.00
2022-10-18T17:55:30.433Z,100.00
2022-10-18T17:58:31.362Z,100.00
2022-10-18T18:01:13.008Z,100.00
2022-10-18T18:03:40.365Z,100.00
2022-10-18T18:06:23.643Z,100.00
2022-10-18T18:08:51.096Z,100.00
2022-10-18T18:11:38.432Z,100.00
2022-10-18T18:14:39.292Z,100.00
2022-10-18T18:17:28.627Z,100.00
2022-10-18T18:20:01.406Z,100.00
2022-10-18T18:22:28.553Z,100.00
2022-10-18T18:24:55.491Z,100.00
2022-10-18T18:27:22.302Z,100.00
2022-10-18T18:29:49.136Z,100.00
2022-10-18T18:32:36.402Z,100.00
2022-10-18T18:35:17.006Z,100.00
2022-10-18T18:37:44.045Z,100.00
2022-10-18T18:40:11.734Z,100.00
2022-10-18T18:42:38.751Z,100.00
2022-10-18T18:45:07.058Z,100.00
2022-10-18T18:47:42.455Z,100.00
2022-10-18T18:50:43.517Z,100.00
2022-10-18T18:53:18.836Z,100.00
2022-10-18T18:56:06.347Z,100.00
2022-10-18T18:59:08.671Z,100.00
2022-10-18T19:02:11.168Z,100.00
2022-10-18T19:07:52.904Z,100.00
2022-10-18T19:10:20.050Z,100.00
2022-10-18T19:13:07.588Z,100.00
2022-10-18T19:16:26.676Z,100.00
2022-10-18T19:21:58.713Z,100.00
2022-10-18T19:24:30.774Z,100.00
2022-10-18T19:27:09.203Z,100.00
2022-10-18T19:29:38.303Z,100.00
2022-10-18T19:32:25.381Z,100.00
2022-10-18T19:35:27.209Z,100.00
2022-10-18T19:38:08.267Z,100.00
2022-10-18T19:40:35.433Z,100.00
2022-10-18T19:43:02.944Z,100.00
2022-10-18T19:45:30.054Z,100.00
2022-10-18T19:48:18.031Z,100.00
2022-10-18T19:51:06.363Z,100.00
2022-10-18T19:53:35.691Z,100.00
2022-10-18T19:56:37.542Z,100.00
2022-10-18T19:59:34.643Z,100.00
2022-10-18T20:02:35.518Z,100.00
2022-10-18T20:05:16.304Z,100.00
2022-10-18T20:07:46.303Z,100.00
2022-10-18T20:10:33.524Z,100.00
2022-10-18T20:13:35.394Z,100.00
2022-10-18T20:16:17.536Z,100.00
2022-10-18T20:18:44.428Z,100.00
2022-10-18T20:21:31.334Z,100.00
2022-10-18T20:24:32.364Z,100.00
2022-10-18T20:27:33.728Z,100.00
2022-10-18T20:30:21.395Z,100.00
2022-10-18T20:33:22.388Z,100.00
2022-10-18T20:36:07.580Z,100.00
2022-10-18T20:38:35.506Z,100.00
2022-10-18T20:41:06.437Z,100.00
2022-10-18T20:43:34.194Z,100.00
2022-10-18T20:46:01.587Z,100.00
2022-10-18T20:48:29.893Z,100.00
2022-10-18T20:50:57.122Z,100.00
2022-10-18T20:53:23.984Z,100.00
2022-10-18T20:56:18.353Z,100.00
2022-10-18T20:58:58.905Z,100.00
2022-10-18T21:01:26.006Z,100.00
2022-10-18T21:04:17.378Z,100.00
2022-10-18T21:07:18.430Z,100.00
2022-10-18T21:09:58.901Z,100.00
2022-10-18T21:12:27.610Z,100.00
2022-10-18T21:14:55.769Z,100.00
2022-10-18T21:17:22.761Z,100.00
2022-10-18T21:19:49.633Z,100.00
2022-10-18T21:22:19.416Z,100.00
2022-10-18T21:25:06.524Z,100.00
2022-10-18T21:28:07.407Z,100.00
2022-10-18T21:30:47.818Z,100.00
2022-10-18T21:33:34.407Z,100.00
2022-10-18T21:36:14.961Z,100.00
2022-10-18T21:38:44.092Z,100.00
2022-10-18T21:41:12.235Z,100.00
2022-10-18T21:43:39.871Z,100.00
2022-10-18T21:46:26.382Z,100.00
2022-10-18T21:49:08.571Z,100.00
2022-10-18T21:51:35.789Z,100.00
2022-10-18T21:54:25.378Z,100.00
2022-10-18T21:57:26.680Z,100.00
2022-10-18T22:00:10.322Z,100.00
2022-10-18T22:02:37.534Z,100.00
2022-10-18T22:05:08.218Z,100.00
2022-10-18T22:07:58.430Z,100.00
2022-10-18T22:10:39.017Z,100.00
2022-10-18T22:13:06.016Z,100.00
2022-10-18T22:15:32.938Z,100.00
2022-10-18T22:17:59.781Z,100.00
2022-10-18T22:20:26.665Z,100.00
2022-10-18T22:22:54.199Z,100.00
2022-10-18T22:25:21.302Z,100.00
2022-10-18T22:27:48.103Z,100.00
2022-10-18T22:30:35.453Z,100.00
2022-10-18T22:36:16.813Z,100.00
2022-10-18T22:38:43.714Z,100.00
2022-10-18T22:41:11.300Z,100.00
2022-10-18T22:43:47.748Z,100.00
2022-10-18T22:46:34.425Z,100.00
2022-10-18T22:49:15.353Z,100.00
2022-10-18T22:51:42.367Z,100.00
2022-10-18T22:54:29.429Z,100.00
2022-10-18T22:57:30.488Z,100.00
2022-10-18T23:00:11.554Z,100.00
2022-10-18T23:02:38.326Z,100.00
2022-10-18T23:05:05.425Z,100.00
2022-10-18T23:07:52.454Z,100.00
2022-10-18T23:10:32.874Z,100.00
2022-10-18T23:12:59.829Z,100.00
2022-10-18T23:15:26.614Z,100.00
2022-10-18T23:17:54.779Z,100.00
2022-10-18T23:20:21.953Z,100.00
2022-10-18T23:22:48.828Z,100.00
2022-10-18T23:25:15.922Z,100.00
2022-10-18T23:30:10.952Z,100.00
2022-10-18T23:32:40.121Z,100.00
2022-10-18T23:35:07.288Z,100.00
2022-10-18T23:37:54.459Z,100.00
2022-10-18T23:40:55.476Z,100.00
2022-10-18T23:43:44.958Z,100.00
2022-10-18T23:46:32.432Z,100.00
2022-10-18T23:49:12.928Z,100.00
2022-10-18T23:51:39.809Z,100.00
2022-10-18T23:54:26.567Z,100.00
2022-10-18T23:57:27.495Z,100.00
